Arcola, Pennsylvania
Current Conditions -  °F | °C
As of 8:54 PM on Wednesday 26 Nov 2014 (Local Time) from KPTW Reporting Station
Overcast Overcast  
Wind Chill: 29°   Ceiling: 8000
Heat Index: 34°   Visibility: 10mi
Dew Point: 31°   Wind: 6mph
Humidity: 89%   Direction: 330°NNW
Pressure: 29.89"   Gusts: NA
Location:  40.15°N, 75.46°W
Report Text: KPTW 270154Z AUTO 33005KT 10SM SCT048 OVC080 01/M01 A2989 RMK AO2 UPB0058E30B47E48SNE0058B30E47B48E49 SLP123 P0000 T00111006
Loading
Personal Weather Stations






























Interactive Weather Map New forecast layout! Learn more

10-Day Weather Forecast

Advertisements
Track Severe Weather on mobile